Time;durP1;ratioP1;P1;durP2;ratioP2;P2;SDS_P1;SDS_P2;PMS_P1;PMS_P2;Temp;Humidity;BMP_temperature;BMP_pressure;BME280_temperature;BME280_humidity;BME280_pressure;Samples;Min_cycle;Max_cycle;Signal;HPM_P1;HPM_P2
2022/07/28 00:00:09;;;;;;;;;;;17.70;99.90;;;16.86;93.00;95598.31;10413824;28;1906;-70
2022/07/28 00:05:12;;;;;;;;;;;17.60;99.90;;;16.77;93.83;95606.47;10416371;28;1840;-77
2022/07/28 00:10:16;;;;;;;;;;;17.70;99.90;;;16.82;94.44;95591.94;10415880;28;1849;-71
2022/07/28 00:15:19;;;;;;;;;;;17.50;99.90;;;16.52;96.67;95586.28;10411605;28;1824;-69
2022/07/28 00:20:24;;;;;;;;;;;17.40;99.90;;;16.44;97.13;95585.13;10414233;28;1979;-69
2022/07/28 00:25:27;;;;;;;;;;;;;;;16.45;97.57;95577.78;10415908;28;1816;-70
2022/07/28 00:30:31;;;;;;;;;;;;;;;16.31;98.46;95577.13;10416311;28;1806;-70
2022/07/28 00:35:35;;;;;;;;;;;;;;;16.07;100.00;95582.94;10404778;28;1936;-69
2022/07/28 00:45:59;;;;;;;;;;;;;;;15.98;100.00;95569.34;10416029;28;1881;-69
2022/07/28 00:51:04;;;;;;;;;;;;;;;16.09;100.00;95559.81;10413761;28;1900;-70
2022/07/28 00:56:09;;;;;;;;;;;;;;;15.97;100.00;95556.91;10411980;28;2035;-71
2022/07/28 01:01:16;;;;;;;;;;;;;;;15.87;100.00;95557.97;10412945;28;2031;-71
2022/07/28 01:06:20;;;;;;;;;;;;;;;15.64;100.00;95548.28;10411442;28;2005;-69
2022/07/28 01:11:24;;;;;;;;;;;16.60;99.90;;;15.84;100.00;95539.63;10421499;28;1937;-70
2022/07/28 01:16:28;;;;;;;;;;;16.50;99.90;;;15.77;100.00;95541.19;10410769;28;2114;-69
2022/07/28 01:21:32;;;;;;;;;;;16.60;99.90;;;15.77;100.00;95530.34;10418331;28;2075;-70
2022/07/28 01:26:43;;;;;;;;;;;16.60;99.90;;;15.93;100.00;95526.91;10412026;28;1970;-70
2022/07/28 01:31:46;;;;;;;;;;;16.70;99.90;;;15.88;100.00;95528.97;10427350;28;1983;-71
2022/07/28 01:36:51;;;;;;;;;;;16.70;99.90;;;15.89;100.00;95522.41;10412454;28;1954;-69
2022/07/28 01:41:57;;;;;;;;;;;16.70;99.90;;;16.14;100.00;95508.16;10409707;28;2056;-70
2022/07/28 01:47:00;;;;;;;;;;;16.80;99.90;;;16.00;100.00;95506.69;10414145;28;1898;-69
2022/07/28 01:52:03;;;;;;;;;;;16.80;99.90;;;15.93;100.00;95504.44;10412310;28;1971;-69
2022/07/28 01:57:07;;;;;;;;;;;16.70;99.90;;;15.80;100.00;95510.75;10429603;28;1970;-71
2022/07/28 02:02:11;;;;;;;;;;;16.70;99.90;;;15.80;100.00;95508.03;10423608;28;2111;-69
2022/07/28 02:07:15;;;;;;;;;;;16.70;99.90;;;16.01;100.00;95513.69;10411327;28;1916;-70
2022/07/28 02:12:18;;;;;;;;;;;16.70;99.90;;;15.81;100.00;95506.94;10414678;28;2001;-70
2022/07/28 02:17:22;;;;;;;;;;;;;;;15.94;100.00;95506.81;10403998;28;1929;-69
2022/07/28 02:22:26;;;;;;;;;;;;;;;15.67;100.00;95505.13;10411490;28;1973;-68
2022/07/28 02:27:30;;;;;;;;;;;;;;;15.72;100.00;95506.91;10407355;28;1988;-69
2022/07/28 02:32:33;;;;;;;;;;;;;;;15.53;100.00;95500.88;10411182;28;1983;-69
2022/07/28 02:37:39;;;;;;;;;;;;;;;15.55;100.00;95506.78;10408863;28;1918;-70
2022/07/28 02:42:42;;;;;;;;;;;;;;;15.53;100.00;95496.28;10410374;28;2033;-70
2022/07/28 02:47:46;;;;;;;;;;;;;;;15.58;100.00;95495.31;10415860;28;1911;-70
2022/07/28 02:52:50;;;;;;;;;;;;;;;15.35;100.00;95495.38;10403707;28;1921;-69
2022/07/28 02:57:55;;;;;;;;;;;;;;;15.33;100.00;95492.19;10417097;28;1918;-68
2022/07/28 03:25:59;;;;;;;;;;;;;;;15.32;100.00;95508.72;10406147;28;2028;-73
2022/07/28 03:31:03;;;;;;;;;;;;;;;15.08;100.00;95525.31;10421073;28;1961;-69
2022/07/28 03:36:07;;;;;;;;;;;;;;;15.13;100.00;95517.84;10420983;28;2095;-69
2022/07/28 03:41:10;;;;;;;;;;;;;;;15.31;100.00;95515.25;10435201;28;1973;-70
2022/07/28 03:46:13;;;;;;;;;;;;;;;15.10;100.00;95512.25;10411556;28;1921;-69
2022/07/28 03:51:17;;;;;;;;;;;;;;;15.04;100.00;95508.88;10420537;28;1977;-70
2022/07/28 03:56:20;;;;;;;;;;;;;;;15.01;100.00;95517.59;10405998;28;1982;-71
2022/07/28 04:01:23;;;;;;;;;;;;;;;15.08;100.00;95515.28;10427955;28;2031;-74
2022/07/28 04:06:27;;;;;;;;;;;;;;;14.95;100.00;95513.44;10410030;28;1948;-72
2022/07/28 04:11:31;;;;;;;;;;;;;;;14.96;100.00;95516.94;10408151;28;2021;-70
2022/07/28 04:16:34;;;;;;;;;;;;;;;14.99;100.00;95514.41;10403259;28;2000;-71
2022/07/28 04:21:38;;;;;;;;;;;;;;;15.25;100.00;95509.16;10411325;28;2073;-71
2022/07/28 04:26:41;;;;;;;;;;;;;;;15.48;100.00;95518.06;10414385;28;2230;-72
2022/07/28 04:31:49;;;;;;;;;;;;;;;15.56;100.00;95509.19;10410594;28;2005;-69
2022/07/28 04:36:55;;;;;;;;;;;;;;;15.31;100.00;95513.34;10419248;28;1960;-69
2022/07/28 04:41:58;;;;;;;;;;;;;;;15.16;100.00;95519.16;10414862;28;1903;-71
2022/07/28 04:47:02;;;;;;;;;;;;;;;14.91;100.00;95520.56;10414860;28;1947;-68
2022/07/28 04:52:09;;;;;;;;;;;;;;;15.13;100.00;95523.25;10411033;28;1993;-69
2022/07/28 04:57:12;;;;;;;;;;;;;;;15.54;100.00;95524.16;10415854;28;2089;-69
2022/07/28 05:02:16;;;;;;;;;;;;;;;15.65;100.00;95533.66;10411098;28;2003;-70
2022/07/28 05:07:20;;;;;;;;;;;;;;;15.71;100.00;95526.16;10409935;28;2291;-70
2022/07/28 05:12:23;;;;;;;;;;;;;;;16.27;100.00;95519.19;10413483;28;2418;-68
2022/07/28 05:17:29;;;;;;;;;;;;;;;16.54;100.00;95523.53;10415370;28;1989;-67
2022/07/28 05:22:33;;;;;;;;;;;;;;;16.41;100.00;95528.81;10412412;28;1965;-69
2022/07/28 05:27:36;;;;;;;;;;;;;;;17.04;100.00;95521.19;10416009;28;1984;-70
2022/07/28 05:32:40;;;;;;;;;;;;;;;17.19;100.00;95528.06;10413085;28;1948;-70
2022/07/28 05:37:44;;;;;;;;;;;;;;;16.87;100.00;95523.94;10411349;28;1952;-70
2022/07/28 05:42:48;;;;;;;;;;;;;;;17.09;100.00;95525.69;10411805;28;1944;-73
2022/07/28 05:47:51;;;;;;;;;;;;;;;17.81;99.15;95528.44;10413736;28;1953;-71
2022/07/28 05:52:55;;;;;;;;;;;;;;;17.44;99.77;95521.00;10407801;28;2024;-70
2022/07/28 05:57:59;;;;;;;;;;;;;;;17.80;98.64;95534.97;10410778;28;2073;-71
2022/07/28 06:03:03;;;;;;;;;;;;;;;17.79;98.94;95533.38;10405498;28;1909;-69
2022/07/28 06:08:09;;;;;;;;;;;;;;;17.43;100.00;95530.25;10409722;28;1944;-70
2022/07/28 06:13:12;;;;;;;;;;;;;;;18.01;98.33;95535.09;10412112;28;1964;-68
2022/07/28 06:18:16;;;;;;;;;;;18.90;99.90;;;18.27;96.12;95531.44;10416086;28;1858;-70
2022/07/28 06:23:22;;;;;;;;;;;19.00;99.90;;;17.66;100.00;95533.56;10410047;28;1953;-69
2022/07/28 06:28:25;;;;;;;;;;;18.70;99.90;;;17.92;99.62;95530.78;10407437;28;1961;-69
2022/07/28 06:33:29;;;;;;;;;;;18.80;99.90;;;18.46;96.79;95539.19;10426275;28;1990;-71
2022/07/28 06:38:32;;;;;;;;;;;19.10;99.90;;;19.27;92.94;95530.56;10412149;28;1973;-68
2022/07/28 06:43:35;;;;;;;;;;;19.60;99.90;;;19.53;89.71;95546.69;10407836;28;2003;-68
2022/07/28 06:48:42;;;;;;;;;;;20.10;99.90;;;19.18;93.05;95536.09;10417519;28;1957;-69
2022/07/28 06:53:47;;;;;;;;;;;19.90;99.90;;;19.74;90.16;95534.97;10418843;28;1943;-69
2022/07/28 06:58:51;;;;;;;;;;;20.20;99.90;;;19.58;90.46;95534.78;10417224;28;1901;-69
2022/07/28 07:03:54;;;;;;;;;;;20.30;99.90;;;20.08;88.32;95533.75;10417355;28;2037;-70
2022/07/28 07:08:57;;;;;;;;;;;20.40;99.90;;;19.39;91.62;95538.00;10423591;28;1928;-69
2022/07/28 07:14:01;;;;;;;;;;;20.60;99.90;;;19.96;89.71;95532.59;10417332;28;2155;-69
2022/07/28 07:19:04;;;;;;;;;;;20.40;99.90;;;19.98;88.73;95524.88;10417131;28;1922;-70
2022/07/28 07:24:10;;;;;;;;;;;20.80;99.90;;;20.36;86.24;95518.31;10422106;28;2037;-69
2022/07/28 07:29:14;;;;;;;;;;;21.00;99.90;;;20.28;87.28;95504.75;10412713;28;2032;-69
2022/07/28 07:34:17;;;;;;;;;;;20.90;99.90;;;19.81;88.53;95511.44;10416838;28;2079;-67
2022/07/28 07:39:21;;;;;;;;;;;21.00;99.90;;;21.10;83.78;95508.03;10434691;28;1998;-68
2022/07/28 07:44:24;;;;;;;;;;;21.30;99.90;;;20.92;82.14;95504.78;10417362;28;1937;-68
2022/07/28 07:49:28;;;;;;;;;;;21.70;99.90;;;20.73;84.75;95497.22;10419839;28;1934;-68
2022/07/28 07:54:48;;;;;;;;;;;21.50;99.90;;;21.23;80.58;95504.09;10414476;28;1946;-68
2022/07/28 07:59:52;;;;;;;;;;;21.80;99.90;;;21.03;81.34;95496.91;10416584;28;2004;-69
2022/07/28 08:04:55;;;;;;;;;;;21.90;99.90;;;21.32;80.82;95501.28;10422388;28;1913;-70
2022/07/28 08:09:58;;;;;;;;;;;22.10;99.90;;;21.78;78.86;95485.28;10431166;28;1935;-70
2022/07/28 08:15:01;;;;;;;;;;;22.30;99.90;;;21.56;79.76;95494.88;10420611;28;1966;-70
2022/07/28 08:20:04;;;;;;;;;;;22.40;99.90;;;21.85;78.09;95499.16;10411852;28;1984;-74
2022/07/28 08:25:06;;;;;;;;;;;22.30;99.90;;;21.63;77.50;95507.94;10419192;28;1893;-70
2022/07/28 08:30:10;;;;;;;;;;;22.60;99.90;;;21.75;77.79;95505.13;10416306;28;1978;-70
2022/07/28 08:35:13;;;;;;;;;;;22.80;99.90;;;21.63;77.69;95494.25;10412923;28;1969;-70
2022/07/28 08:40:35;;;;;;;;;;;22.60;99.90;;;21.53;79.68;95501.06;10411067;28;1944;-70
2022/07/28 08:45:39;;;;;;;;;;;22.60;99.90;;;22.04;76.55;95485.56;10410642;28;1855;-71
2022/07/28 08:50:44;;;;;;;;;;;22.60;99.90;;;21.96;76.66;95494.75;10410540;28;1998;-71
2022/07/28 08:55:47;;;;;;;;;;;22.60;99.90;;;22.11;75.99;95491.22;10403935;28;1968;-71
2022/07/28 09:00:50;;;;;;;;;;;22.90;99.90;;;22.54;74.16;95494.97;10407302;28;2366;-70
2022/07/28 09:05:55;;;;;;;;;;;23.20;99.90;;;22.69;72.35;95493.34;10412381;28;1990;-70
2022/07/28 09:11:00;;;;;;;;;;;23.30;99.90;;;22.65;71.56;95498.75;10427117;28;1950;-72
2022/07/28 09:16:04;;;;;;;;;;;;;;;22.58;71.77;95497.78;10415938;28;1975;-70
2022/07/28 09:21:08;;;;;;;;;;;;;;;22.29;73.29;95499.06;10411571;28;1963;-69
2022/07/28 09:26:12;;;;;;;;;;;;;;;22.25;72.13;95492.72;10405877;28;1949;-70
2022/07/28 09:31:16;;;;;;;;;;;;;;;22.33;72.54;95491.72;10404660;28;1973;-71
2022/07/28 09:36:19;;;;;;;;;;;;;;;22.76;70.69;95495.44;10429046;28;2061;-72
2022/07/28 09:41:23;;;;;;;;;;;;;;;22.78;69.67;95482.19;10413390;28;1960;-71
2022/07/28 09:46:26;;;;;;;;;;;23.50;99.90;;;22.57;70.89;95477.81;10407519;28;1953;-70
2022/07/28 09:51:32;;;;;;;;;;;23.50;99.90;;;22.69;69.92;95479.63;10408397;28;1961;-70
2022/07/28 09:56:37;;;;;;;;;;;23.60;99.90;;;22.63;70.48;95481.84;10410524;28;1957;-70
2022/07/28 10:01:40;;;;;;;;;;;23.30;99.90;;;22.61;69.97;95475.94;10409561;28;2022;-70
2022/07/28 10:06:44;;;;;;;;;;;23.50;99.90;;;22.63;70.28;95473.63;10409807;28;2036;-70
2022/07/28 10:11:48;;;;;;;;;;;23.40;99.90;;;22.82;67.91;95472.09;10410097;28;1967;-70
2022/07/28 10:16:52;;;;;;;;;;;23.60;99.90;;;23.31;66.51;95485.25;10410910;28;2109;-70
2022/07/28 10:21:56;;;;;;;;;;;23.80;99.90;;;23.14;65.45;95462.59;10411015;28;1924;-70
2022/07/28 10:26:59;;;;;;;;;;;24.00;99.90;;;23.30;64.87;95456.25;10406888;28;1983;-71
2022/07/28 10:32:04;;;;;;;;;;;;;;;23.54;61.75;95463.34;10416024;28;1967;-69
2022/07/28 10:37:08;;;;;;;;;;;;;;;23.78;61.76;95467.72;10408233;28;1960;-69
2022/07/28 10:42:12;;;;;;;;;;;;;;;23.83;60.44;95459.19;10411492;28;2090;-70
2022/07/28 10:47:16;;;;;;;;;;;;;;;23.71;61.02;95460.94;10412480;28;1976;-71
2022/07/28 10:52:21;;;;;;;;;;;24.50;99.90;;;23.70;58.78;95461.31;10410167;28;1993;-73
2022/07/28 10:57:45;;;;;;;;;;;25.30;99.90;;;24.50;55.30;95454.00;10410714;28;1961;-73
2022/07/28 11:03:05;;;;;;;;;;;25.80;99.90;;;24.99;52.45;95458.56;10405283;28;1828;-69
2022/07/28 11:08:15;;;;;;;;;;;26.70;99.90;;;24.66;53.40;95446.38;10412909;28;1748;-71
2022/07/28 11:13:18;;;;;;;;;;;26.80;99.90;;;25.33;51.71;95446.44;10409511;28;1918;-70
2022/07/28 11:18:22;;;;;;;;;;;27.10;99.90;;;26.14;47.91;95440.13;10415325;28;1811;-71
2022/07/28 11:23:25;;;;;;;;;;;28.00;99.90;;;25.55;49.08;95441.16;10413850;28;1960;-70
2022/07/28 11:28:32;;;;;;;;;;;27.70;99.90;;;25.83;47.33;95435.97;10417311;28;1828;-71
2022/07/28 11:33:35;;;;;;;;;;;27.80;99.90;;;25.96;47.17;95433.72;10418192;28;1914;-69
2022/07/28 11:38:49;;;;;;;;;;;27.90;99.90;;;25.90;46.52;95437.19;10417637;28;1853;-76
2022/07/28 11:43:52;;;;;;;;;;;27.70;99.90;;;25.25;47.33;95443.97;10414562;28;1891;-70
2022/07/28 11:48:55;;;;;;;;;;;27.00;99.90;;;25.20;47.69;95433.31;10413193;28;1851;-70
2022/07/28 11:53:59;;;;;;;;;;;26.30;99.90;;;24.92;48.86;95425.50;10412588;28;1914;-72
2022/07/28 11:59:01;;;;;;;;;;;26.00;99.90;;;24.98;48.07;95432.25;10419799;28;1858;-71
2022/07/28 12:04:05;;;;;;;;;;;25.80;99.90;;;24.44;49.07;95422.53;10411324;28;1950;-70
2022/07/28 12:09:12;;;;;;;;;;;25.50;99.90;;;24.97;48.05;95428.69;10417248;28;1869;-71
2022/07/28 12:14:16;;;;;;;;;;;25.70;99.90;;;24.92;47.52;95442.78;10416203;28;1906;-69
2022/07/28 12:19:19;;;;;;;;;;;25.80;99.90;;;24.87;47.39;95423.06;10413080;28;1848;-70
2022/07/28 12:24:22;;;;;;;;;;;25.80;99.90;;;25.01;47.23;95418.53;10415214;28;1840;-71
2022/07/28 12:29:30;;;;;;;;;;;25.90;99.90;;;24.82;47.59;95415.97;10407184;28;1850;-70
2022/07/28 12:34:38;;;;;;;;;;;25.90;99.90;;;25.51;45.71;95423.81;10413725;28;1922;-70
2022/07/28 12:39:44;;;;;;;;;;;26.20;99.90;;;25.72;45.76;95396.50;10414254;28;1830;-71
2022/07/28 12:44:50;;;;;;;;;;;26.40;99.90;;;25.84;45.25;95404.50;10407005;28;2174;-73
2022/07/28 12:49:53;;;;;;;;;;;26.80;99.90;;;25.75;45.36;95405.97;10416404;28;1868;-70
2022/07/28 12:55:02;;;;;;;;;;;26.50;99.90;;;25.80;45.41;95408.38;10411662;28;1921;-70
2022/07/28 13:00:06;;;;;;;;;;;26.70;99.90;;;25.95;45.32;95392.75;10416610;28;1775;-72
2022/07/28 13:05:09;;;;;;;;;;;26.80;99.90;;;25.71;46.02;95394.91;10407448;28;1841;-71
2022/07/28 13:10:16;;;;;;;;;;;26.70;99.90;;;25.81;44.93;95390.69;10417140;28;1770;-70
2022/07/28 13:15:20;;;;;;;;;;;26.60;99.90;;;26.13;44.60;95382.66;10408156;28;1981;-71
2022/07/28 13:20:24;;;;;;;;;;;26.80;99.90;;;26.24;44.54;95380.78;10420933;28;1840;-70
2022/07/28 13:25:27;;;;;;;;;;;27.00;99.90;;;26.45;43.33;95385.66;10410794;28;1943;-70
2022/07/28 13:30:31;;;;;;;;;;;27.20;99.90;;;26.46;43.73;95370.69;10424390;28;1851;-70
2022/07/28 13:35:33;;;;;;;;;;;27.20;99.90;;;26.05;43.67;95370.03;10416382;28;1987;-72
2022/07/28 13:40:36;;;;;;;;;;;27.10;99.90;;;26.31;43.19;95374.53;10406528;28;1850;-70
2022/07/28 13:45:39;;;;;;;;;;;27.20;99.90;;;26.44;44.38;95359.28;10429543;28;1770;-70
2022/07/28 13:50:44;;;;;;;;;;;27.20;99.90;;;26.26;43.67;95364.66;10414663;28;1837;-71
2022/07/28 13:55:51;;;;;;;;;;;27.20;99.90;;;26.25;43.70;95368.59;10410210;28;1937;-70
2022/07/28 14:00:53;;;;;;;;;;;27.20;99.90;;;26.46;43.34;95361.63;10410902;28;1852;-71
2022/07/28 14:05:56;;;;;;;;;;;27.20;99.90;;;26.82;41.76;95346.06;10408150;28;1918;-70
2022/07/28 14:11:00;;;;;;;;;;;27.40;99.90;;;26.95;41.65;95356.34;10414826;28;1845;-70
2022/07/28 14:16:04;;;;;;;;;;;27.70;99.90;;;26.92;42.68;95348.06;10415752;28;1979;-70
2022/07/28 14:21:16;;;;;;;;;;;27.70;99.90;;;26.94;42.29;95337.44;10409433;28;1769;-70
2022/07/28 14:26:19;;;;;;;;;;;27.80;99.90;;;27.02;42.12;95332.72;10420206;28;1802;-70
2022/07/28 14:31:37;;;;;;;;;;;27.80;99.90;;;26.61;43.07;95336.53;10413693;28;1875;-74
2022/07/28 14:36:41;;;;;;;;;;;27.80;99.90;;;26.78;43.32;95329.47;10417603;28;1914;-71
2022/07/28 14:41:45;;;;;;;;;;;27.60;99.90;;;26.71;43.14;95318.44;10425302;28;1844;-73
2022/07/28 14:46:53;;;;;;;;;;;27.60;99.90;;;27.24;41.47;95322.56;10412421;28;1824;-70
2022/07/28 14:51:58;;;;;;;;;;;28.00;99.90;;;26.86;41.95;95328.34;10408046;28;1699;-70
2022/07/28 14:57:01;;;;;;;;;;;27.90;99.90;;;27.22;41.74;95325.69;10412330;28;1980;-70
2022/07/28 15:02:05;;;;;;;;;;;27.90;99.90;;;27.13;40.38;95325.28;10403315;28;1840;-71
2022/07/28 15:07:09;;;;;;;;;;;28.00;99.90;;;27.14;40.33;95318.59;10419085;28;1900;-70
2022/07/28 15:12:13;;;;;;;;;;;28.00;99.90;;;26.80;41.30;95305.09;10412217;28;1906;-70
2022/07/28 15:17:18;;;;;;;;;;;28.00;99.90;;;27.22;41.35;95325.69;10421947;28;1807;-71
2022/07/28 15:22:22;;;;;;;;;;;27.90;99.90;;;27.41;40.79;95308.75;10413843;28;1889;-72
2022/07/28 15:27:28;;;;;;;;;;;28.00;99.90;;;27.03;41.66;95312.22;10426555;28;1825;-70
2022/07/28 15:32:35;;;;;;;;;;;28.00;99.90;;;26.98;41.53;95315.38;10419697;28;1914;-71
2022/07/28 15:37:58;;;;;;;;;;;27.80;99.90;;;27.20;40.10;95322.53;10413515;28;1791;-71
2022/07/28 15:43:01;;;;;;;;;;;28.00;99.90;;;26.80;40.89;95316.13;10419619;28;1876;-70
2022/07/28 15:48:05;;;;;;;;;;;27.80;99.90;;;26.93;40.93;95319.31;10413408;28;1936;-74
2022/07/28 15:53:09;;;;;;;;;;;27.70;99.90;;;26.98;40.66;95304.34;10417534;28;1957;-70
2022/07/28 15:58:12;;;;;;;;;;;27.70;99.90;;;26.91;41.22;95289.38;10418411;28;1984;-71
2022/07/28 16:03:16;;;;;;;;;;;27.70;99.90;;;26.64;41.83;95293.59;10425345;28;1902;-72
2022/07/28 16:08:20;;;;;;;;;;;27.40;99.90;;;26.75;42.31;95288.91;10419541;28;1884;-72
2022/07/28 16:13:25;;;;;;;;;;;27.50;99.90;;;26.54;42.70;95297.91;10419050;28;1981;-70
2022/07/28 16:18:38;;;;;;;;;;;27.30;99.90;;;26.32;42.90;95293.44;10416868;28;1942;-70
2022/07/28 16:23:42;;;;;;;;;;;27.20;99.90;;;26.10;42.77;95295.31;10419145;28;1807;-70
2022/07/28 16:28:46;;;;;;;;;;;27.00;99.90;;;26.10;42.91;95300.81;10423383;28;1862;-72
2022/07/28 16:33:49;;;;;;;;;;;26.80;99.90;;;25.91;42.80;95299.13;10408210;28;1910;-70
2022/07/28 16:38:52;;;;;;;;;;;26.70;99.90;;;25.80;43.50;95304.56;10424581;28;2062;-71
2022/07/28 16:43:55;;;;;;;;;;;26.60;99.90;;;25.86;43.74;95293.97;10414436;28;1846;-71
2022/07/28 16:48:59;;;;;;;;;;;26.50;99.90;;;25.80;43.22;95296.31;10415488;28;1898;-71
2022/07/28 16:54:03;;;;;;;;;;;26.50;99.90;;;25.69;42.81;95311.13;10419549;28;1949;-71
2022/07/28 16:59:06;;;;;;;;;;;26.50;99.90;;;25.64;42.70;95300.47;10418253;28;1893;-70
2022/07/28 17:04:09;;;;;;;;;;;26.40;99.90;;;25.59;44.22;95304.38;10410242;28;1812;-73
2022/07/28 17:09:13;;;;;;;;;;;26.40;99.90;;;25.39;45.23;95303.84;10411949;28;1814;-71
2022/07/28 17:14:17;;;;;;;;;;;26.20;99.90;;;25.48;45.70;95298.00;10417740;28;1903;-71
2022/07/28 17:19:20;;;;;;;;;;;26.10;99.90;;;25.46;46.04;95305.84;10419290;28;1940;-70
2022/07/28 17:24:23;;;;;;;;;;;26.10;99.90;;;25.26;46.29;95313.53;10421234;28;1852;-71
2022/07/28 17:29:26;;;;;;;;;;;26.10;99.90;;;25.27;46.11;95315.13;10407706;28;1811;-71
2022/07/28 17:34:30;;;;;;;;;;;26.00;99.90;;;25.20;46.05;95323.31;10419421;28;1910;-72
2022/07/28 17:39:34;;;;;;;;;;;26.00;99.90;;;25.14;46.17;95314.59;10401425;28;1865;-69
2022/07/28 17:44:38;;;;;;;;;;;25.80;99.90;;;25.04;46.33;95312.50;10403037;28;1621;-70
2022/07/28 17:49:42;;;;;;;;;;;;;;;24.95;46.94;95325.78;10413245;28;1786;-71
2022/07/28 18:00:08;;;;;;;;;;;;;;;24.79;47.23;95337.75;10406738;28;1993;-70
2022/07/28 18:05:12;;;;;;;;;;;;;;;24.69;47.61;95343.94;10408344;28;1829;-70
2022/07/28 18:10:16;;;;;;;;;;;;;;;24.64;48.19;95354.47;10403280;28;2000;-70
2022/07/28 18:15:27;;;;;;;;;;;;;;;24.54;48.98;95359.44;10426254;28;1980;-73
2022/07/28 18:20:34;;;;;;;;;;;;;;;24.46;49.29;95371.53;10411179;28;1789;-70
2022/07/28 18:25:38;;;;;;;;;;;;;;;24.42;49.92;95373.41;10396351;28;1867;-71
2022/07/28 18:30:47;;;;;;;;;;;;;;;24.34;50.62;95362.72;10403837;28;1823;-69
2022/07/28 18:35:51;;;;;;;;;;;;;;;24.14;51.52;95368.31;10403955;28;1919;-67
2022/07/28 18:40:54;;;;;;;;;;;;;;;24.11;52.08;95369.06;10399416;28;1903;-69
2022/07/28 18:45:59;;;;;;;;;;;;;;;23.98;52.84;95365.72;10401814;28;1794;-71
2022/07/28 18:51:02;;;;;;;;;;;;;;;23.86;53.60;95359.66;10404419;28;1986;-69
2022/07/28 18:56:06;;;;;;;;;;;;;;;23.82;53.92;95358.78;10404224;28;1968;-70
2022/07/28 19:01:11;;;;;;;;;;;;;;;23.69;54.69;95361.75;10401014;28;1794;-69
2022/07/28 19:06:16;;;;;;;;;;;;;;;23.53;55.66;95372.00;10412329;28;1884;-70
2022/07/28 19:11:20;;;;;;;;;;;;;;;23.44;56.69;95368.75;10413408;28;1981;-70
2022/07/28 19:16:23;;;;;;;;;;;;;;;23.30;57.51;95372.03;10408105;28;1979;-70
2022/07/28 19:21:27;;;;;;;;;;;;;;;23.28;58.13;95368.03;10407124;28;1974;-70
2022/07/28 19:26:31;;;;;;;;;;;;;;;23.22;58.54;95374.97;10410170;28;1860;-69
2022/07/28 19:31:35;;;;;;;;;;;;;;;23.02;59.65;95376.97;10408960;28;1892;-71
2022/07/28 19:36:40;;;;;;;;;;;;;;;23.09;59.76;95371.63;10403910;28;2222;-71
2022/07/28 19:41:46;;;;;;;;;;;;;;;23.00;60.33;95373.81;10414006;28;1838;-70
2022/07/28 19:46:51;;;;;;;;;;;;;;;22.83;61.01;95381.28;10411271;28;1856;-71
2022/07/28 19:51:55;;;;;;;;;;;;;;;22.84;61.37;95387.56;10409425;28;1773;-72
2022/07/28 19:56:59;;;;;;;;;;;;;;;22.74;62.23;95388.16;10418082;28;1922;-69
2022/07/28 20:02:13;;;;;;;;;;;;;;;22.67;62.80;95392.34;10406764;28;1954;-69
2022/07/28 20:07:18;;;;;;;;;;;;;;;22.59;63.59;95396.09;10403152;28;1877;-70
2022/07/28 20:12:22;;;;;;;;;;;;;;;22.63;63.59;95407.09;10421887;28;1859;-69
2022/07/28 20:17:27;;;;;;;;;;;;;;;22.47;64.53;95415.38;10415117;28;1914;-71
2022/07/28 20:22:41;;;;;;;;;;;;;;;22.32;65.67;95418.94;10413753;28;1883;-72
2022/07/28 20:27:45;;;;;;;;;;;;;;;22.31;66.08;95431.84;10422281;28;1918;-72
2022/07/28 20:32:48;;;;;;;;;;;23.10;99.90;;;22.37;66.36;95432.38;10412458;28;2104;-71
2022/07/28 20:37:51;;;;;;;;;;;23.20;99.90;;;22.33;66.56;95434.22;10407230;28;2159;-73
2022/07/28 20:42:55;;;;;;;;;;;23.10;99.90;;;22.35;67.23;95421.00;10417618;28;1818;-74
2022/07/28 20:47:58;;;;;;;;;;;23.10;99.90;;;22.40;68.84;95428.94;10427295;28;2004;-73
2022/07/28 20:53:02;;;;;;;;;;;23.20;99.90;;;22.41;70.09;95430.50;10403669;28;1904;-73
2022/07/28 20:58:12;;;;;;;;;;;23.20;99.90;;;22.44;72.69;95439.94;10411490;28;1918;-73
2022/07/28 21:03:16;;;;;;;;;;;23.20;99.90;;;22.30;74.79;95440.44;10415659;28;1828;-73
2022/07/28 21:08:20;;;;;;;;;;;23.20;99.90;;;22.30;75.12;95452.16;10414231;28;1965;-73
2022/07/28 21:13:23;;;;;;;;;;;23.10;99.90;;;22.28;75.18;95470.91;10418188;28;1876;-72
2022/07/28 21:18:26;;;;;;;;;;;23.00;99.90;;;22.28;73.83;95475.59;10418182;28;1921;-73
2022/07/28 21:23:30;;;;;;;;;;;23.00;99.90;;;22.25;73.07;95498.19;10414131;28;1819;-73
2022/07/28 21:33:54;;;;;;;;;;;22.80;99.90;;;22.05;68.68;95528.19;10414195;28;1906;-72
2022/07/28 21:38:57;;;;;;;;;;;;;;;21.87;64.08;95524.19;10412327;28;1876;-72
2022/07/28 21:44:01;;;;;;;;;;;22.80;99.90;;;21.79;62.75;95531.44;10419472;28;1903;-72
2022/07/28 21:49:05;;;;;;;;;;;22.60;99.90;;;21.84;62.51;95544.06;10413309;28;1885;-72
2022/07/28 21:54:08;;;;;;;;;;;22.60;99.90;;;21.89;60.13;95546.56;10415423;28;2425;-72
2022/07/28 21:59:11;;;;;;;;;;;22.60;99.90;;;21.80;60.05;95548.66;10418904;28;1999;-72
2022/07/28 22:04:14;;;;;;;;;;;22.60;99.90;;;21.77;60.23;95560.31;10420371;28;1895;-71
2022/07/28 22:09:18;;;;;;;;;;;22.50;99.90;;;21.67;60.50;95579.94;10420935;28;1844;-71
2022/07/28 22:14:24;;;;;;;;;;;22.40;99.90;;;21.57;59.66;95586.72;10414315;28;1973;-75
2022/07/28 22:19:27;;;;;;;;;;;22.40;99.90;;;21.48;60.07;95588.81;10410346;28;1810;-72
2022/07/28 22:24:32;;;;;;;;;;;22.30;99.90;;;21.28;60.38;95609.69;10410936;28;1839;-71
2022/07/28 22:29:35;;;;;;;;;;;22.10;99.90;;;21.26;61.02;95603.78;10412464;28;2096;-71
2022/07/28 22:34:38;;;;;;;;;;;22.00;99.90;;;21.23;63.09;95623.59;10408846;28;1918;-72
2022/07/28 22:39:42;;;;;;;;;;;22.00;99.90;;;21.03;67.03;95617.94;10413117;28;1809;-72
2022/07/28 22:44:45;;;;;;;;;;;21.90;99.90;;;20.81;69.54;95621.16;10411410;28;1769;-72
2022/07/28 22:49:52;;;;;;;;;;;21.70;99.90;;;20.68;71.25;95614.91;10414317;28;1853;-71
2022/07/28 22:54:55;;;;;;;;;;;21.60;99.90;;;20.73;71.53;95611.13;10414820;28;1973;-73
2022/07/28 22:59:59;;;;;;;;;;;21.50;99.90;;;20.62;73.14;95599.09;10415653;28;1765;-72
2022/07/28 23:05:03;;;;;;;;;;;21.50;99.90;;;20.37;75.45;95585.41;10401743;28;1907;-71
2022/07/28 23:10:07;;;;;;;;;;;21.30;99.90;;;20.32;75.40;95577.44;10422935;28;1886;-72
2022/07/28 23:15:11;;;;;;;;;;;21.20;99.90;;;20.36;74.16;95575.63;10407531;28;1918;-72
2022/07/28 23:20:14;;;;;;;;;;;21.10;99.90;;;20.24;73.65;95578.34;10411305;28;1810;-72
2022/07/28 23:25:19;;;;;;;;;;;;;;;20.29;74.22;95574.56;10413468;28;1805;-71
2022/07/28 23:30:22;;;;;;;;;;;21.00;99.90;;;20.27;74.42;95566.75;10413986;28;1887;-71
2022/07/28 23:35:25;;;;;;;;;;;21.00;99.90;;;20.14;75.16;95559.69;10417619;28;1910;-72
2022/07/28 23:40:29;;;;;;;;;;;20.90;99.90;;;20.07;75.82;95573.09;10421501;28;1844;-71
2022/07/28 23:45:34;;;;;;;;;;;20.90;99.90;;;20.13;75.70;95577.97;10411366;28;1785;-71
2022/07/28 23:50:40;;;;;;;;;;;20.80;99.90;;;20.01;76.40;95574.44;10423198;28;1729;-72
2022/07/28 23:55:43;;;;;;;;;;;20.80;99.90;;;20.01;77.01;95574.44;10424444;28;1949;-75
